Saturday, January 20, 2018, 8:23 AM EST
Back to Local

KFIG, Clearfield-lawrence Airport

Location: Clearfield, PA, United States Lat: 41.05
Local Time: 8:23 AM EST (13:23 GMT) Lon: -78.417
Time Zone: US/Eastern Elev: 1515 ft

Show me the last for .
Show Decoded

2018-01-20 07:54 METAR KFIG 201254Z AUTO 24011G23KT 10SM CLR 02/M06 A2993 RMK AO2 SLP150
                 T00171056 =
2018-01-20 06:54 METAR KFIG 201154Z AUTO 23014G24KT 10SM CLR 02/M06 A2993 RMK AO2 PK WND
                 24028/1111 SLP148 T00171061 10022 20011 53009 =
2018-01-20 05:54 METAR KFIG 201054Z AUTO 24017G23KT 10SM CLR 02/M06 A2991 RMK AO2 SLP142
                 T00171061 =
2018-01-20 04:54 METAR KFIG 200954Z AUTO 23011G24KT 10SM CLR 02/M06 A2990 RMK AO2 SLP138
                 T00171061 =
2018-01-20 03:54 METAR KFIG 200854Z AUTO 23012G20KT 10SM CLR 02/M07 A2990 RMK AO2 SLP137
                 T00171072 50004 =
2018-01-20 01:54 METAR KFIG 200654Z AUTO 23015G23KT 10SM CLR 02/M08 A2988 RMK AO2 SLP131
                 T00171078 =
2018-01-20 00:54 METAR KFIG 200554Z AUTO 22014G20KT 10SM CLR 01/M08 A2989 RMK AO2 SLP133
                 T00111078 10011 20000 58014 =
2018-01-19 23:54 METAR KFIG 200454Z AUTO 22010G17KT 10SM CLR 01/M08 A2991 RMK AO2 SLP143
                 T00111083 400281061 =
2018-01-19 22:54 METAR KFIG 200354Z AUTO 21012G17KT 10SM CLR 01/M08 A2993 RMK AO2 SLP150
                 T00061078 =
2018-01-19 21:54 METAR KFIG 200254Z AUTO 21010G18KT 10SM CLR 01/M08 A2993 RMK AO2 SLP151
                 T00111078 58007 =
2018-01-19 20:54 METAR KFIG 200154Z AUTO 21008KT 10SM CLR 00/M08 A2993 RMK AO2 SLP155 T00001078 =
2018-01-19 19:54 METAR KFIG 200054Z AUTO 21008KT 10SM CLR 00/M08 A2995 RMK AO2 SLP160 T00001078 =
2018-01-19 18:54 METAR KFIG 192354Z AUTO 20007KT 10SM CLR 00/M08 A2995 RMK AO2 SLP161 T00001078
                 10028 20000 50000 =
2018-01-19 17:54 METAR KFIG 192254Z AUTO 21006KT 10SM CLR 01/M08 A2996 RMK AO2 SLP164 T00111083 =
2018-01-19 16:54 METAR KFIG 192154Z AUTO 22008KT 10SM CLR 02/M08 A2996 RMK AO2 SLP162 T00221078 =
2018-01-19 15:54 METAR KFIG 192054Z AUTO 23012G19KT 10SM CLR 03/M08 A2995 RMK AO2 SLP159
                 T00281083 56009 =
2018-01-19 14:54 METAR KFIG 191954Z AUTO 25015G21KT 10SM CLR 03/M08 A2996 RMK AO2 PK WND
                 24027/1939 SLP162 T00281083 =
2018-01-19 13:54 METAR KFIG 191854Z AUTO 23018G26KT 10SM CLR 02/M09 A2996 RMK AO2 PK WND
                 23026/1853 SLP162 T00221089 =
2018-01-19 12:54 METAR KFIG 191754Z AUTO 22011KT 10SM CLR 01/M09 A2998 RMK AO2 SLP171 T00061094
                 10006 21061 58022 =
2018-01-19 11:54 METAR KFIG 191654Z AUTO 23009KT 10SM CLR M01/M10 A3001 RMK AO2 SLP182 T10061100
                 =
2018-01-19 10:54 METAR KFIG 191554Z AUTO 23010G18KT 10SM CLR M02/M11 A3004 RMK AO2 SLP192
                 T10171106 =
2018-01-19 09:54 METAR KFIG 191454Z AUTO 22010KT 10SM CLR M04/M11 A3005 RMK AO2 SLP197 T10391111
                 53006 =
2018-01-19 08:54 METAR KFIG 191354Z AUTO 23009KT 10SM CLR M06/M12 A3004 RMK AO2 SLP196 T10561122
                 =

Support USWX by starting your Amazon purchase here.